createdAt,value
2018-04-11T00:00:53.459Z,94555.05
2018-04-11T00:03:22.503Z,94559.42
2018-04-11T00:05:51.580Z,94565.06
2018-04-11T00:08:20.658Z,94570.59
2018-04-11T00:13:25.381Z,94563.05
2018-04-11T00:18:30.130Z,94560.52
2018-04-11T00:21:00.147Z,94564.19
2018-04-11T00:23:29.214Z,94570.58
2018-04-11T00:25:58.376Z,94570.67
2018-04-11T00:28:38.527Z,94576.16
2018-04-11T00:33:45.172Z,94568.56
2018-04-11T00:36:14.255Z,94565.13
2018-04-11T00:38:43.326Z,94565.97
2018-04-11T00:41:12.754Z,94574.09
2018-04-11T00:43:41.807Z,94580.63
2018-04-11T00:46:10.864Z,94576.25
2018-04-11T00:48:39.952Z,94581.27
2018-04-11T00:51:09.142Z,94577.50
2018-04-11T00:53:38.193Z,94580.27
2018-04-11T00:58:42.941Z,94577.66
2018-04-11T01:01:11.991Z,94579.37
2018-04-11T01:06:17.796Z,94567.74
2018-04-11T01:08:46.841Z,94569.88
2018-04-11T01:13:51.679Z,94572.89
2018-04-11T01:16:20.774Z,94566.11
2018-04-11T01:18:49.970Z,94562.70
2018-04-11T01:21:19.030Z,94559.06
2018-04-11T01:23:48.092Z,94557.39
2018-04-11T01:26:19.098Z,94560.08
2018-04-11T01:28:48.155Z,94566.53
2018-04-11T01:31:17.213Z,94565.94
2018-04-11T01:33:46.256Z,94567.96
2018-04-11T01:36:15.325Z,94569.98
2018-04-11T01:38:44.371Z,94571.64
2018-04-11T01:41:14.396Z,94572.86
2018-04-11T01:43:43.450Z,94574.81
2018-04-11T01:46:12.519Z,94575.09
2018-04-11T01:48:41.596Z,94577.95
2018-04-11T01:51:10.633Z,94581.45
2018-04-11T01:53:39.784Z,94581.02
2018-04-11T01:56:08.816Z,94582.67
2018-04-11T01:58:37.943Z,94577.69
2018-04-11T02:01:07.016Z,94570.08
2018-04-11T02:03:36.085Z,94570.38
2018-04-11T02:06:05.137Z,94566.45
2018-04-11T02:08:34.183Z,94556.45
2018-04-11T02:11:03.295Z,94555.91
2018-04-11T02:13:32.359Z,94565.78
2018-04-11T02:16:05.280Z,94567.80
2018-04-11T02:18:34.316Z,94559.53
2018-04-11T02:21:04.280Z,94561.73
2018-04-11T02:23:33.330Z,94564.35
2018-04-11T02:26:02.934Z,94569.60
2018-04-11T02:28:31.980Z,94573.91
2018-04-11T02:31:01.038Z,94583.45
2018-04-11T02:33:30.098Z,94593.27
2018-04-11T02:36:00.335Z,94604.33
2018-04-11T02:38:29.419Z,94600.83
2018-04-11T02:40:58.475Z,94600.89
2018-04-11T02:43:27.523Z,94600.08
2018-04-11T02:45:57.573Z,94595.66
2018-04-11T02:51:03.636Z,94579.89
2018-04-11T02:53:32.699Z,94582.30
2018-04-11T02:56:01.812Z,94577.60
2018-04-11T02:58:30.860Z,94578.73
2018-04-11T03:01:00.835Z,94573.52
2018-04-11T03:03:29.908Z,94573.51
2018-04-11T03:05:58.998Z,94565.78
2018-04-11T03:08:28.143Z,94558.72
2018-04-11T03:10:59.194Z,94555.00
2018-04-11T03:13:29.194Z,94558.48
2018-04-11T03:15:58.351Z,94562.92
2018-04-11T03:21:03.082Z,94566.11
2018-04-11T03:23:32.171Z,94573.08
2018-04-11T03:26:01.214Z,94573.76
2018-04-11T03:31:06.085Z,94573.69
2018-04-11T03:33:35.114Z,94568.45
2018-04-11T03:36:05.113Z,94575.79
2018-04-11T03:38:34.328Z,94578.06
2018-04-11T03:41:03.379Z,94576.59
2018-04-11T03:43:32.416Z,94590.94
2018-04-11T03:46:01.509Z,94591.90
2018-04-11T03:48:30.592Z,94595.55
2018-04-11T03:51:00.702Z,94596.75
2018-04-11T03:56:08.615Z,94587.98
2018-04-11T03:58:37.668Z,94588.97
2018-04-11T04:01:07.710Z,94590.20
2018-04-11T04:03:36.754Z,94587.63
2018-04-11T04:08:41.550Z,94585.89
2018-04-11T04:11:11.608Z,94580.55
2018-04-11T04:13:58.879Z,94581.55
2018-04-11T04:16:49.214Z,94584.92
2018-04-11T04:19:36.145Z,94585.67
2018-04-11T04:22:05.199Z,94586.43
2018-04-11T04:24:34.257Z,94587.27
2018-04-11T04:27:03.319Z,94584.26
2018-04-11T04:29:32.468Z,94584.20
2018-04-11T04:32:01.571Z,94581.20
2018-04-11T04:34:30.614Z,94579.92
2018-04-11T04:36:59.672Z,94585.30
2018-04-11T04:42:04.953Z,94590.83
2018-04-11T04:44:34.162Z,94593.28
2018-04-11T04:47:03.250Z,94591.60
2018-04-11T04:49:32.301Z,94591.14
2018-04-11T04:52:01.479Z,94589.75
2018-04-11T04:54:30.539Z,94585.77
2018-04-11T04:56:59.610Z,94583.66
2018-04-11T04:59:28.716Z,94587.98
2018-04-11T05:01:58.977Z,94589.23
2018-04-11T05:07:03.947Z,94593.15
2018-04-11T05:09:33.006Z,94602.29
2018-04-11T05:12:03.013Z,94602.38
2018-04-11T05:14:32.382Z,94604.24
2018-04-11T05:17:01.415Z,94607.06
2018-04-11T05:19:31.430Z,94602.77
2018-04-11T05:22:01.305Z,94607.84
2018-04-11T05:24:30.370Z,94605.91
2018-04-11T05:26:59.639Z,94608.28
2018-04-11T05:29:29.060Z,94606.66
2018-04-11T05:31:58.083Z,94601.28
2018-04-11T05:34:28.078Z,94601.59
2018-04-11T05:36:57.135Z,94598.69
2018-04-11T05:39:26.184Z,94597.11
2018-04-11T05:41:55.850Z,94595.80
2018-04-11T05:44:24.903Z,94595.39
2018-04-11T05:46:53.974Z,94592.35
2018-04-11T05:49:23.472Z,94595.97
2018-04-11T05:54:28.263Z,94593.23
2018-04-11T05:56:57.351Z,94592.67
2018-04-11T05:59:26.585Z,94592.59
2018-04-11T06:01:55.635Z,94588.02
2018-04-11T06:04:25.052Z,94589.65
2018-04-11T06:06:54.106Z,94589.33
2018-04-11T06:09:23.166Z,94590.61
2018-04-11T06:11:52.714Z,94593.62
2018-04-11T06:14:21.770Z,94597.59
2018-04-11T06:16:51.040Z,94587.05
2018-04-11T06:19:20.090Z,94587.36
2018-04-11T06:21:49.136Z,94588.58
2018-04-11T06:24:18.876Z,94588.80
2018-04-11T06:26:47.935Z,94584.30
2018-04-11T06:29:17.561Z,94585.77
2018-04-11T06:31:46.612Z,94580.78
2018-04-11T06:34:15.867Z,94578.69
2018-04-11T06:36:45.063Z,94575.02
2018-04-11T06:39:14.097Z,94577.50
2018-04-11T06:41:43.570Z,94569.60
2018-04-11T06:44:12.638Z,94569.19
2018-04-11T06:46:42.235Z,94564.94
2018-04-11T06:51:47.126Z,94566.37
2018-04-11T06:54:16.844Z,94569.42
2018-04-11T06:56:45.885Z,94568.16
2018-04-11T07:01:50.662Z,94567.95
2018-04-11T07:04:20.038Z,94569.23
2018-04-11T07:06:49.762Z,94569.16
2018-04-11T07:09:18.991Z,94569.05
2018-04-11T07:11:48.058Z,94566.89
2018-04-11T07:14:17.136Z,94568.38
2018-04-11T07:16:46.932Z,94567.16
2018-04-11T07:19:15.970Z,94565.22
2018-04-11T07:21:45.273Z,94564.88
2018-04-11T07:26:50.588Z,94565.96
2018-04-11T07:29:19.638Z,94561.89
2018-04-11T07:31:48.967Z,94564.75
2018-04-11T07:34:18.005Z,94566.39
2018-04-11T07:36:47.281Z,94569.05
2018-04-11T07:41:52.785Z,94573.95
2018-04-11T07:44:21.856Z,94570.01
2018-04-11T07:46:50.904Z,94572.27
2018-04-11T07:49:20.005Z,94573.34
2018-04-11T07:51:49.040Z,94569.02
2018-04-11T07:56:53.922Z,94561.34
2018-04-11T07:59:23.448Z,94558.89
2018-04-11T08:04:28.219Z,94544.58
2018-04-11T08:06:57.254Z,94543.28
2018-04-11T08:09:26.408Z,94543.61
2018-04-11T08:11:55.430Z,94546.80
2018-04-11T08:14:25.923Z,94543.70
2018-04-11T08:16:54.979Z,94545.46
2018-04-11T08:24:35.540Z,94539.44
2018-04-11T08:29:40.430Z,94536.77
2018-04-11T08:32:13.369Z,94537.71
2018-04-11T08:37:17.939Z,94540.76
2018-04-11T08:39:47.634Z,94545.20
2018-04-11T08:42:16.681Z,94544.81
2018-04-11T08:44:46.194Z,94543.03
2018-04-11T08:47:15.267Z,94539.11
2018-04-11T08:49:44.308Z,94533.89
2018-04-11T08:52:13.393Z,94531.44
2018-04-11T08:54:43.019Z,94532.45
2018-04-11T08:57:12.062Z,94526.67
2018-04-11T08:59:41.134Z,94529.84
2018-04-11T09:02:11.933Z,94517.80
2018-04-11T09:04:41.008Z,94513.40
2018-04-11T09:07:10.614Z,94508.39
2018-04-11T09:09:39.661Z,94516.41
2018-04-11T09:12:09.157Z,94518.39
2018-04-11T09:14:38.206Z,94512.34
2018-04-11T09:17:07.358Z,94505.17
2018-04-11T09:19:36.472Z,94500.09
2018-04-11T09:22:05.530Z,94499.11
2018-04-11T09:24:35.163Z,94504.38
2018-04-11T09:29:46.380Z,94492.26
2018-04-11T09:34:58.099Z,94479.23
2018-04-11T09:37:31.382Z,94483.44
2018-04-11T09:40:04.998Z,94482.94
2018-04-11T09:42:34.020Z,94476.84
2018-04-11T09:45:07.718Z,94478.84
2018-04-11T09:47:37.166Z,94476.93
2018-04-11T09:50:09.899Z,94475.64
2018-04-11T09:52:42.447Z,94472.90
2018-04-11T09:57:56.167Z,94468.88
2018-04-11T10:00:30.696Z,94477.80
2018-04-11T10:03:08.696Z,94473.84
2018-04-11T10:05:38.375Z,94460.39
2018-04-11T10:08:07.426Z,94463.61
2018-04-11T10:10:37.019Z,94461.56
2018-04-11T10:15:42.267Z,94457.89
2018-04-11T10:19:18.795Z,94450.61
2018-04-11T10:21:47.866Z,94455.98
2018-04-11T10:24:18.207Z,94446.23
2018-04-11T10:26:47.289Z,94448.84
2018-04-11T10:29:16.982Z,94452.92
2018-04-11T10:36:58.007Z,94434.53
2018-04-11T10:42:05.016Z,94425.96
2018-04-11T10:44:34.051Z,94423.77
2018-04-11T10:47:04.062Z,94418.11
2018-04-11T10:49:33.443Z,94425.67
2018-04-11T10:52:02.479Z,94416.22
2018-04-11T10:57:07.338Z,94417.73
2018-04-11T10:59:38.177Z,94400.48
2018-04-11T11:02:10.447Z,94415.44
2018-04-11T11:07:15.719Z,94415.70
2018-04-11T11:09:45.295Z,94412.59
2018-04-11T11:12:14.506Z,94408.79
2018-04-11T11:17:19.372Z,94394.97
2018-04-11T11:22:24.343Z,94405.55
2018-04-11T11:27:29.187Z,94406.22
2018-04-11T11:29:58.289Z,94397.09
2018-04-11T11:32:27.337Z,94397.30
2018-04-11T11:34:57.295Z,94390.86
2018-04-11T11:37:26.357Z,94382.89
2018-04-11T11:39:55.419Z,94385.14
2018-04-11T11:42:24.477Z,94381.12
2018-04-11T11:44:54.037Z,94394.04
2018-04-11T11:47:23.100Z,94396.58
2018-04-11T11:49:52.619Z,94384.78
2018-04-11T11:52:22.972Z,94376.06
2018-04-11T11:54:53.027Z,94369.28
2018-04-11T11:57:22.139Z,94359.31
2018-04-11T11:59:52.852Z,94353.62
2018-04-11T12:02:21.921Z,94356.46
2018-04-11T12:04:51.273Z,94357.42
2018-04-11T12:07:24.607Z,94363.27
2018-04-11T12:09:57.995Z,94355.88
2018-04-11T12:12:29.439Z,94368.50
2018-04-11T12:15:02.562Z,94365.44
2018-04-11T12:20:12.331Z,94355.16
2018-04-11T12:22:45.894Z,94349.61
2018-04-11T12:25:14.926Z,94361.41
2018-04-11T12:27:43.999Z,94354.06
2018-04-11T12:30:13.681Z,94341.78
2018-04-11T12:32:42.774Z,94341.86
2018-04-11T12:35:12.241Z,94343.55
2018-04-11T12:37:41.303Z,94341.26
2018-04-11T12:40:10.742Z,94341.64
2018-04-11T12:42:39.816Z,94345.19
2018-04-11T12:45:08.926Z,94331.80
2018-04-11T12:47:38.437Z,94339.48
2018-04-11T12:50:07.512Z,94330.97
2018-04-11T12:52:37.119Z,94322.34
2018-04-11T12:55:06.312Z,94314.36
2018-04-11T13:00:11.223Z,94319.20
2018-04-11T13:02:40.270Z,94325.95
2018-04-11T13:05:09.668Z,94323.32
2018-04-11T13:10:14.623Z,94303.64
2018-04-11T13:12:44.720Z,94301.01
2018-04-11T13:17:49.639Z,94298.98
2018-04-11T13:20:19.312Z,94294.47
2018-04-11T13:22:48.366Z,94292.41
2018-04-11T13:25:17.416Z,94285.50
2018-04-11T13:27:46.464Z,94280.70
2018-04-11T13:30:15.514Z,94282.17
2018-04-11T13:32:45.058Z,94285.27
2018-04-11T13:35:14.083Z,94282.55
2018-04-11T13:37:43.794Z,94271.61
2018-04-11T13:40:12.855Z,94273.31
2018-04-11T13:42:41.955Z,94262.47
2018-04-11T13:45:10.958Z,94258.50
2018-04-11T13:47:40.649Z,94261.64
2018-04-11T13:50:10.234Z,94270.02
2018-04-11T13:55:20.704Z,94261.02
2018-04-11T13:57:54.425Z,94260.23
2018-04-11T14:00:27.319Z,94261.54
2018-04-11T14:02:59.293Z,94260.59
2018-04-11T14:05:32.124Z,94264.08
2018-04-11T14:08:04.920Z,94267.05
2018-04-11T14:10:37.578Z,94253.57
2018-04-11T14:13:10.103Z,94262.94
2018-04-11T14:18:19.554Z,94263.14
2018-04-11T14:20:52.725Z,94265.98
2018-04-11T14:23:26.496Z,94267.62
2018-04-11T14:25:55.798Z,94268.94
2018-04-11T14:28:24.851Z,94262.56
2018-04-11T14:33:30.523Z,94258.84
2018-04-11T14:35:59.582Z,94251.03
2018-04-11T14:41:04.550Z,94241.38
2018-04-11T14:43:34.099Z,94251.92
2018-04-11T14:46:03.174Z,94246.85
2018-04-11T14:48:32.215Z,94240.21
2018-04-11T14:51:01.271Z,94239.13
2018-04-11T14:56:06.646Z,94235.17
2018-04-11T14:58:36.198Z,94233.83
2018-04-11T15:01:05.228Z,94232.22
2018-04-11T15:03:34.303Z,94230.55
2018-04-11T15:08:39.492Z,94223.87
2018-04-11T15:11:08.543Z,94230.19
2018-04-11T15:13:38.104Z,94224.68
2018-04-11T15:16:07.194Z,94224.41
2018-04-11T15:18:36.241Z,94219.35
2018-04-11T15:21:05.974Z,94215.59
2018-04-11T15:23:34.998Z,94218.07
2018-04-11T15:26:04.339Z,94214.79
2018-04-11T15:28:33.384Z,94212.59
2018-04-11T15:31:02.557Z,94212.23
2018-04-11T15:33:32.468Z,94211.09
2018-04-11T15:38:37.662Z,94215.67
2018-04-11T15:41:06.688Z,94215.92
2018-04-11T15:43:36.215Z,94208.53
2018-04-11T15:48:42.695Z,94211.13
2018-04-11T15:51:11.729Z,94211.10
2018-04-11T15:53:40.785Z,94212.98
2018-04-11T15:56:09.885Z,94219.34
2018-04-11T15:58:39.479Z,94212.59
2018-04-11T16:01:08.553Z,94209.48
2018-04-11T16:03:37.953Z,94213.01
2018-04-11T16:08:42.840Z,94221.03
2018-04-11T16:11:12.988Z,94217.21
2018-04-11T16:13:45.607Z,94223.01
2018-04-11T16:16:16.131Z,94217.54
2018-04-11T16:18:46.683Z,94222.13
2018-04-11T16:21:16.281Z,94227.05
2018-04-11T16:23:45.341Z,94217.84
2018-04-11T16:26:14.502Z,94225.50
2018-04-11T16:28:44.092Z,94222.16
2018-04-11T16:31:13.217Z,94224.98
2018-04-11T16:33:42.815Z,94226.13
2018-04-11T16:36:11.868Z,94223.09
2018-04-11T16:38:41.273Z,94217.45
2018-04-11T16:41:10.791Z,94218.38
2018-04-11T16:43:39.858Z,94215.14
2018-04-11T16:46:09.354Z,94217.56
2018-04-11T16:48:38.404Z,94217.89
2018-04-11T16:51:07.832Z,94219.41
2018-04-11T16:53:37.259Z,94220.77
2018-04-11T16:56:06.288Z,94217.00
2018-04-11T16:58:35.359Z,94213.06
2018-04-11T17:01:04.386Z,94215.14
2018-04-11T17:03:33.451Z,94216.25
2018-04-11T17:06:02.842Z,94212.25
2018-04-11T17:08:35.172Z,94210.77
2018-04-11T17:11:04.226Z,94212.45
2018-04-11T17:13:33.382Z,94209.48
2018-04-11T17:16:02.438Z,94206.28
2018-04-11T17:18:31.850Z,94205.31
2018-04-11T17:21:18.801Z,94199.90
2018-04-11T17:24:08.166Z,94202.61
2018-04-11T17:26:54.988Z,94204.11
2018-04-11T17:29:42.819Z,94204.00
2018-04-11T17:34:48.197Z,94198.33
2018-04-11T17:37:17.250Z,94201.79
2018-04-11T17:39:46.313Z,94201.54
2018-04-11T17:42:15.371Z,94200.20
2018-04-11T17:44:44.734Z,94198.44
2018-04-11T17:47:13.816Z,94200.75
2018-04-11T17:49:42.868Z,94198.67
2018-04-11T17:52:12.285Z,94206.33
2018-04-11T17:54:41.557Z,94204.66
2018-04-11T17:59:46.376Z,94199.86
2018-04-11T18:02:17.719Z,94200.10
2018-04-11T18:04:46.754Z,94199.70
2018-04-11T18:07:15.813Z,94198.44
2018-04-11T18:09:44.901Z,94202.05
2018-04-11T18:12:15.181Z,94202.40
2018-04-11T18:14:44.226Z,94203.98
2018-04-11T18:19:50.251Z,94211.87
2018-04-11T18:24:55.201Z,94213.42
2018-04-11T18:27:24.498Z,94209.84
2018-04-11T18:32:29.382Z,94211.47
2018-04-11T18:35:00.471Z,94207.14
2018-04-11T18:37:29.522Z,94205.19
2018-04-11T18:39:58.599Z,94205.48
2018-04-11T18:42:27.664Z,94202.38
2018-04-11T18:44:56.941Z,94201.94
2018-04-11T18:47:26.013Z,94202.59
2018-04-11T18:49:55.099Z,94202.30
2018-04-11T18:52:24.139Z,94202.67
2018-04-11T18:54:54.171Z,94200.93
2018-04-11T18:59:59.029Z,94200.39
2018-04-11T19:07:39.586Z,94195.87
2018-04-11T19:10:08.727Z,94196.23
2018-04-11T19:12:37.789Z,94193.06
2018-04-11T19:15:07.035Z,94189.92
2018-04-11T19:17:36.137Z,94187.27
2018-04-11T19:20:05.249Z,94184.70
2018-04-11T19:25:10.491Z,94183.09
2018-04-11T19:27:39.525Z,94172.81
2018-04-11T19:30:21.084Z,94171.11
2018-04-11T19:32:51.016Z,94167.61
2018-04-11T19:35:20.114Z,94164.67
2018-04-11T19:37:49.214Z,94164.70
2018-04-11T19:40:18.271Z,94160.57
2018-04-11T19:42:47.329Z,94157.94
2018-04-11T19:45:16.388Z,94157.72
2018-04-11T19:47:45.537Z,94153.27
2018-04-11T19:50:14.676Z,94149.98
2018-04-11T19:52:44.625Z,94146.13
2018-04-11T19:55:13.779Z,94144.86
2018-04-11T19:57:42.874Z,94146.16
2018-04-11T20:00:12.019Z,94147.30
2018-04-11T20:02:48.497Z,94145.98
2018-04-11T20:05:29.549Z,94142.28
2018-04-11T20:07:59.609Z,94140.28
2018-04-11T20:10:28.731Z,94138.39
2018-04-11T20:12:57.809Z,94136.58
2018-04-11T20:18:02.722Z,94124.89
2018-04-11T20:20:32.018Z,94119.98
2018-04-11T20:23:01.377Z,94118.63
2018-04-11T20:25:30.515Z,94110.47
2018-04-11T20:27:59.932Z,94109.52
2018-04-11T20:30:29.051Z,94115.33
2018-04-11T20:35:34.019Z,94109.77
2018-04-11T20:38:05.501Z,94110.38
2018-04-11T20:40:34.736Z,94109.15
2018-04-11T20:43:03.809Z,94103.11
2018-04-11T20:45:34.440Z,94097.92
2018-04-11T20:48:03.635Z,94095.50
2018-04-11T20:50:32.726Z,94092.50
2018-04-11T20:53:02.718Z,94092.11
2018-04-11T20:55:32.006Z,94089.16
2018-04-11T20:58:03.132Z,94085.11
2018-04-11T21:00:32.202Z,94083.03
2018-04-11T21:05:37.232Z,94072.03
2018-04-11T21:08:10.804Z,94065.29
2018-04-11T21:10:40.002Z,94062.29
2018-04-11T21:13:09.099Z,94060.03
2018-04-11T21:15:38.166Z,94056.03
2018-04-11T21:18:07.914Z,94055.84
2018-04-11T21:20:36.970Z,94057.31
2018-04-11T21:25:41.827Z,94047.91
2018-04-11T21:28:11.875Z,94040.37
2018-04-11T21:30:41.022Z,94039.47
2018-04-11T21:33:10.186Z,94041.03
2018-04-11T21:35:39.256Z,94041.63
2018-04-11T21:38:08.423Z,94039.98
2018-04-11T21:40:37.562Z,94034.72
2018-04-11T21:43:07.632Z,94035.09
2018-04-11T21:45:36.680Z,94028.88
2018-04-11T21:48:05.750Z,94024.88
2018-04-11T21:50:34.986Z,94022.02
2018-04-11T21:53:05.104Z,94023.17
2018-04-11T21:55:34.198Z,94013.58
2018-04-11T22:00:39.022Z,94009.86
2018-04-11T22:03:11.379Z,94008.52
2018-04-11T22:05:40.471Z,94000.59
2018-04-11T22:08:09.544Z,93996.57
2018-04-11T22:10:38.621Z,93997.97
2018-04-11T22:13:07.806Z,93997.39
2018-04-11T22:15:37.003Z,94000.73
2018-04-11T22:20:41.851Z,93994.86
2018-04-11T22:25:46.752Z,93988.35
2018-04-11T22:28:15.942Z,93986.97
2018-04-11T22:30:45.058Z,93980.02
2018-04-11T22:33:14.114Z,93978.13
2018-04-11T22:35:43.240Z,93981.20
2018-04-11T22:38:12.683Z,93973.75
2018-04-11T22:40:41.726Z,93977.68
2018-04-11T22:43:11.677Z,93971.53
2018-04-11T22:45:40.767Z,93976.61
2018-04-11T22:50:45.585Z,93981.95
2018-04-11T22:53:14.705Z,93977.28
2018-04-11T22:55:43.698Z,93975.70
2018-04-11T22:58:13.682Z,93971.95
2018-04-11T23:00:42.727Z,93963.04
2018-04-11T23:03:11.930Z,93963.24
2018-04-11T23:05:41.030Z,93963.04
2018-04-11T23:10:45.860Z,93953.98
2018-04-11T23:13:14.923Z,93947.25
2018-04-11T23:15:44.177Z,93945.22
2018-04-11T23:18:13.317Z,93942.39
2018-04-11T23:20:42.351Z,93943.02
2018-04-11T23:23:11.396Z,93940.23
2018-04-11T23:25:40.553Z,93936.77
2018-04-11T23:28:09.642Z,93929.09
2018-04-11T23:30:38.670Z,93926.03
2018-04-11T23:35:43.513Z,93928.59
2018-04-11T23:38:12.590Z,93917.16
2018-04-11T23:40:41.639Z,93913.98
2018-04-11T23:43:10.688Z,93917.93
2018-04-11T23:45:39.767Z,93918.58
2018-04-11T23:48:08.818Z,93919.32
2018-04-11T23:50:37.873Z,93915.44
2018-04-11T23:53:07.057Z,93919.80
2018-04-11T23:55:36.129Z,93914.69
2018-04-11T23:58:05.193Z,93909.73
